Time;durP1;ratioP1;P1;durP2;ratioP2;P2;SDS_P1;SDS_P2;PMS_P1;PMS_P2;Temp;Humidity;BMP_temperature;BMP_pressure;BME280_temperature;BME280_humidity;BME280_pressure;Samples;Min_cycle;Max_cycle;Signal;HPM_P1;HPM_P2
2022/08/14 00:01:34;;;;;;;5.10;2.70;;;;;;;;;;4955426;28;20547;-44
2022/08/14 00:04:01;;;;;;;2.63;2.43;;;;;;;;;;4959361;28;20221;-44
2022/08/14 00:06:27;;;;;;;3.77;2.63;;;;;;;;;;4957949;28;20561;-44
2022/08/14 00:08:54;;;;;;;3.93;2.30;;;;;;;;;;4954226;28;20178;-44
2022/08/14 00:11:20;;;;;;;4.63;2.50;;;;;;;;;;4958369;28;20658;-44
2022/08/14 00:13:47;;;;;;;2.77;2.43;;;;;;;;;;4956252;28;20726;-44
2022/08/14 00:16:13;;;;;;;3.83;2.20;;;;;;;;;;4958737;28;21131;-44
2022/08/14 00:18:40;;;;;;;3.20;2.40;;;;;;;;;;4957455;28;20190;-44
2022/08/14 00:21:07;;;;;;;4.60;2.43;;;;;;;;;;4954908;28;20628;-44
2022/08/14 00:23:33;;;;;;;2.60;2.20;;;;;;;;;;4954658;28;20208;-44
2022/08/14 00:25:59;;;;;;;3.00;1.97;;;;;;;;;;4957914;28;20178;-44
2022/08/14 00:28:26;;;;;;;2.83;2.20;;;;;;;;;;4955170;28;20579;-44
2022/08/14 00:30:56;;;;;;;3.97;2.10;;;;;;;;;;4958590;28;20583;-44
2022/08/14 00:33:24;;;;;;;3.40;2.07;;;;;;;;;;4960422;28;20716;-44
2022/08/14 00:35:50;;;;;;;3.40;1.93;;;;;;;;;;4956898;28;20974;-44
2022/08/14 00:38:17;;;;;;;3.40;2.20;;;;;;;;;;4955597;28;20194;-44
2022/08/14 00:40:43;;;;;;;2.57;2.07;;;;;;;;;;4959206;28;20588;-44
2022/08/14 00:43:10;;;;;;;3.17;2.10;;;;;;;;;;4960202;28;20451;-44
2022/08/14 00:45:36;;;;;;;2.73;2.20;;;;;;;;;;4957287;28;20976;-44
2022/08/14 00:48:03;;;;;;;2.90;2.10;;;;;;;;;;4957668;28;20539;-44
2022/08/14 00:50:29;;;;;;;3.00;2.10;;;;;;;;;;4957215;28;20248;-44
2022/08/14 00:52:58;;;;;;;3.70;1.90;;;;;;;;;;4955783;28;20276;-44
2022/08/14 00:55:26;;;;;;;2.23;2.03;;;;;;;;;;4973394;28;20318;-44
2022/08/14 01:00:38;;;;;;;3.40;1.70;;;;;;;;;;4956881;28;20189;-44
2022/08/14 01:03:05;;;;;;;4.47;2.00;;;;;;;;;;4957913;28;21068;-44
2022/08/14 01:05:32;;;;;;;2.77;1.80;;;;;;;;;;4956013;28;20505;-44
2022/08/14 01:07:59;;;;;;;2.87;1.80;;;;;;;;;;4957730;28;20213;-43
2022/08/14 01:11:14;;;;;;;3.43;2.00;;;;;;;;;;4956294;28;20709;-44
2022/08/14 01:13:15;;;;;;;2.27;2.07;;;;;;;;;;4953923;28;20232;-44
2022/08/14 01:15:42;;;;;;;5.73;1.87;;;;;;;;;;4955680;28;20481;-44
2022/08/14 01:21:05;;;;;;;2.43;2.07;;;;;;;;;;4955457;28;20190;-44
2022/08/14 01:23:31;;;;;;;3.27;2.10;;;;;;;;;;4958475;28;20451;-43
2022/08/14 01:25:57;;;;;;;2.10;1.90;;;;;;;;;;4958033;28;20178;-44
2022/08/14 01:28:26;;;;;;;2.57;2.03;;;;;;;;;;4954620;28;20181;-43
2022/08/14 01:30:56;;;;;;;2.30;2.10;;;;;;;;;;4958527;28;20612;-44
2022/08/14 01:33:29;;;;;;;3.00;2.20;;;;;;;;;;4956795;28;20196;-46
2022/08/14 01:36:01;;;;;;;3.83;2.20;;;;;;;;;;4957002;28;20201;-44
2022/08/14 01:38:33;;;;;;;2.30;1.80;;;;;;;;;;4956138;28;20295;-44
2022/08/14 01:41:00;;;;;;;2.30;2.10;;;;;;;;;;4956522;28;20758;-44
2022/08/14 01:43:29;;;;;;;2.20;2.00;;;;;;;;;;4951319;28;20753;-44
2022/08/14 01:45:56;;;;;;;1.97;1.87;;;;;;;;;;4956673;28;20296;-44
2022/08/14 01:48:23;;;;;;;3.67;1.80;;;;;;;;;;4953936;28;20224;-44
2022/08/14 01:50:49;;;;;;;2.20;2.00;;;;;;;;;;4952848;28;20186;-44
2022/08/14 01:53:16;;;;;;;2.80;2.00;;;;;;;;;;4952843;28;20587;-44
2022/08/14 01:55:42;;;;;;;4.33;1.97;;;;;;;;;;4957483;28;20216;-44
2022/08/14 01:58:14;;;;;;;2.13;1.93;;;;;;;;;;4956022;28;20190;-44
2022/08/14 02:00:40;;;;;;;2.20;1.87;;;;;;;;;;4954634;28;20181;-44
2022/08/14 02:03:07;;;;;;;2.10;1.70;;;;;;;;;;4956175;28;20186;-44
2022/08/14 02:05:33;;;;;;;3.97;2.00;;;;;;;;;;4957370;28;20281;-43
2022/08/14 02:07:59;;;;;;;2.00;1.80;;;;;;;;;;4954131;28;20460;-44
2022/08/14 02:10:27;;;;;;;2.43;1.80;;;;;;;;;;4956483;28;20433;-44
2022/08/14 02:12:55;;;;;;;2.73;2.20;;;;;;;;;;4954690;28;20299;-44
2022/08/14 02:15:21;;;;;;;2.87;2.10;;;;;;;;;;4954178;28;20170;-44
2022/08/14 02:17:48;;;;;;;2.87;1.70;;;;;;;;;;4958061;28;20428;-44
2022/08/14 02:20:15;;;;;;;3.60;2.00;;;;;;;;;;4955068;28;20181;-44
2022/08/14 02:22:43;;;;;;;2.10;1.97;;;;;;;;;;4955870;28;20177;-44
2022/08/14 02:25:09;;;;;;;2.50;2.10;;;;;;;;;;4957549;28;20178;-44
2022/08/14 02:27:36;;;;;;;2.23;1.77;;;;;;;;;;4954331;28;20177;-44
2022/08/14 02:30:03;;;;;;;2.73;1.90;;;;;;;;;;4954263;28;20715;-44
2022/08/14 02:32:30;;;;;;;2.30;1.90;;;;;;;;;;4955731;28;20875;-44
2022/08/14 02:34:56;;;;;;;4.33;2.00;;;;;;;;;;4952767;28;20539;-44
2022/08/14 02:37:22;;;;;;;2.43;2.07;;;;;;;;;;4954028;28;20623;-44
2022/08/14 02:39:49;;;;;;;2.10;1.90;;;;;;;;;;4956499;28;20174;-44
2022/08/14 02:42:17;;;;;;;2.90;1.87;;;;;;;;;;4953633;28;20883;-44
2022/08/14 02:44:44;;;;;;;2.70;2.00;;;;;;;;;;4955641;28;20174;-44
2022/08/14 02:47:10;;;;;;;5.90;2.20;;;;;;;;;;4956060;28;20182;-44
2022/08/14 02:49:36;;;;;;;2.67;2.10;;;;;;;;;;4967773;28;20528;-44
2022/08/14 02:52:06;;;;;;;3.43;1.70;;;;;;;;;;4956524;28;20178;-44
2022/08/14 02:54:33;;;;;;;2.10;1.90;;;;;;;;;;4955561;28;20583;-44
2022/08/14 02:56:59;;;;;;;3.53;2.00;;;;;;;;;;4953300;28;20603;-44
2022/08/14 02:59:30;;;;;;;2.47;2.00;;;;;;;;;;4956528;28;20393;-44
2022/08/14 03:01:56;;;;;;;2.40;2.00;;;;;;;;;;4954318;28;20689;-44
2022/08/14 03:04:23;;;;;;;5.00;2.10;;;;;;;;;;4954293;28;20186;-44
2022/08/14 03:06:49;;;;;;;2.77;2.20;;;;;;;;;;4957272;28;20456;-44
2022/08/14 03:09:16;;;;;;;2.70;2.20;;;;;;;;;;4955026;28;20174;-44
2022/08/14 03:11:43;;;;;;;3.40;1.97;;;;;;;;;;4953282;28;20279;-44
2022/08/14 03:14:10;;;;;;;5.57;1.90;;;;;;;;;;4955108;28;20563;-44
2022/08/14 03:16:37;;;;;;;2.03;1.93;;;;;;;;;;4956223;28;20515;-44
2022/08/14 03:19:06;;;;;;;5.37;2.20;;;;;;;;;;4953345;28;20170;-44
2022/08/14 03:21:32;;;;;;;2.47;2.00;;;;;;;;;;4953977;28;20174;-44
2022/08/14 03:24:11;;;;;;;2.23;1.87;;;;;;;;;;4958822;28;20248;-44
2022/08/14 03:26:38;;;;;;;3.73;2.00;;;;;;;;;;4956968;28;20520;-44
2022/08/14 03:29:05;;;;;;;3.83;1.70;;;;;;;;;;4954993;28;20420;-44
2022/08/14 03:31:32;;;;;;;2.00;1.77;;;;;;;;;;4958200;28;20184;-44
2022/08/14 03:33:58;;;;;;;2.67;1.93;;;;;;;;;;4961531;28;20166;-44
2022/08/14 03:36:24;;;;;;;3.27;2.00;;;;;;;;;;4955650;28;20524;-44
2022/08/14 03:38:56;;;;;;;3.80;1.90;;;;;;;;;;4953482;28;20696;-44
2022/08/14 03:41:23;;;;;;;2.77;2.03;;;;;;;;;;4957502;28;20710;-44
2022/08/14 03:43:50;;;;;;;5.53;2.20;;;;;;;;;;4959890;28;20173;-44
2022/08/14 03:46:17;;;;;;;1.77;1.67;;;;;;;;;;4955089;28;20181;-44
2022/08/14 03:48:45;;;;;;;2.43;2.13;;;;;;;;;;4954977;28;20177;-44
2022/08/14 03:51:12;;;;;;;3.03;2.07;;;;;;;;;;4957848;28;20467;-44
2022/08/14 03:53:40;;;;;;;2.30;2.10;;;;;;;;;;4958090;28;20300;-44
2022/08/14 03:56:08;;;;;;;3.20;1.87;;;;;;;;;;4956653;28;20538;-44
2022/08/14 03:58:37;;;;;;;5.10;2.70;;;;;;;;;;4959048;28;20733;-44
2022/08/14 04:01:04;;;;;;;2.50;1.83;;;;;;;;;;4959489;28;20285;-44
2022/08/14 04:03:30;;;;;;;3.10;2.00;;;;;;;;;;4956624;28;20178;-44
2022/08/14 04:05:56;;;;;;;2.87;2.00;;;;;;;;;;4957903;28;20210;-44
2022/08/14 04:08:22;;;;;;;14.80;3.87;;;;;;;;;;4959833;28;20279;-44
2022/08/14 04:10:49;;;;;;;6.03;2.60;;;;;;;;;;4957977;28;20186;-44
2022/08/14 04:13:18;;;;;;;2.63;1.80;;;;;;;;;;4957086;28;20300;-44
2022/08/14 04:15:45;;;;;;;4.80;2.20;;;;;;;;;;4958269;28;20725;-44
2022/08/14 04:18:12;;;;;;;2.80;1.80;;;;;;;;;;4958706;28;20201;-44
2022/08/14 04:20:39;;;;;;;6.23;2.60;;;;;;;;;;4956810;28;20213;-44
2022/08/14 04:23:05;;;;;;;4.47;2.27;;;;;;;;;;4958107;28;20179;-44
2022/08/14 04:25:35;;;;;;;7.37;2.93;;;;;;;;;;4958053;28;20603;-44
2022/08/14 04:28:04;;;;;;;6.77;2.20;;;;;;;;;;4957465;28;20221;-44
2022/08/14 04:30:31;;;;;;;7.73;2.70;;;;;;;;;;4957519;28;20179;-44
2022/08/14 04:32:58;;;;;;;5.33;2.03;;;;;;;;;;4959216;28;20629;-44
2022/08/14 04:35:24;;;;;;;2.27;1.97;;;;;;;;;;4956783;28;20285;-44
2022/08/14 04:43:39;;;;;;;5.17;2.17;;;;;;;;;;4958994;28;20225;-44
2022/08/14 04:46:10;;;;;;;2.40;2.20;;;;;;;;;;4953713;28;20287;-44
2022/08/14 04:48:36;;;;;;;2.83;2.20;;;;;;;;;;4959270;28;20515;-44
2022/08/14 04:51:05;;;;;;;2.20;2.00;;;;;;;;;;4959346;28;20796;-44
2022/08/14 04:53:32;;;;;;;3.03;2.13;;;;;;;;;;4956739;28;20185;-44
2022/08/14 04:55:58;;;;;;;4.33;2.03;;;;;;;;;;4960122;28;20560;-44
2022/08/14 04:58:26;;;;;;;2.73;2.00;;;;;;;;;;4956661;28;20741;-44
2022/08/14 05:00:53;;;;;;;2.77;2.00;;;;;;;;;;4958899;28;20543;-44
2022/08/14 05:03:20;;;;;;;3.77;2.00;;;;;;;;;;4958315;28;20178;-44
2022/08/14 05:05:50;;;;;;;3.30;2.37;;;;;;;;;;4955194;28;20256;-45
2022/08/14 05:08:16;;;;;;;2.60;2.20;;;;;;;;;;4958679;28;20289;-44
2022/08/14 05:10:44;;;;;;;3.73;2.47;;;;;;;;;;4956399;28;20419;-44
2022/08/14 05:13:11;;;;;;;3.53;2.37;;;;;;;;;;4959125;28;21020;-44
2022/08/14 05:15:38;;;;;;;2.43;2.23;;;;;;;;;;4957308;28;20637;-44
2022/08/14 05:18:11;;;;;;;2.40;2.20;;;;;;;;;;4954349;28;20635;-44
2022/08/14 05:20:45;;;;;;;3.50;2.40;;;;;;;;;;4958431;28;20441;-43
2022/08/14 05:23:15;;;;;;;3.33;2.20;;;;;;;;;;4957154;28;20432;-45
2022/08/14 05:25:41;;;;;;;2.83;2.10;;;;;;;;;;4954162;28;20190;-44
2022/08/14 05:28:08;;;;;;;3.07;2.03;;;;;;;;;;4957139;28;20812;-45
2022/08/14 05:30:34;;;;;;;3.33;2.43;;;;;;;;;;4950711;28;20240;-43
2022/08/14 05:33:00;;;;;;;3.33;2.00;;;;;;;;;;4949296;28;20626;-45
2022/08/14 05:35:27;;;;;;;4.50;2.43;;;;;;;;;;4947045;28;20533;-46
2022/08/14 05:37:53;;;;;;;2.47;2.00;;;;;;;;;;4948292;28;21145;-45
2022/08/14 05:40:19;;;;;;;2.40;2.20;;;;;;;;;;4958931;28;20745;-45
2022/08/14 05:42:45;;;;;;;2.07;1.87;;;;;;;;;;4954700;28;20272;-45
2022/08/14 05:45:13;;;;;;;3.47;2.20;;;;;;;;;;4954495;28;20220;-45
2022/08/14 05:47:41;;;;;;;3.90;2.30;;;;;;;;;;4954746;28;20174;-45
2022/08/14 05:50:09;;;;;;;3.43;2.23;;;;;;;;;;4959677;28;20174;-45
2022/08/14 05:52:35;;;;;;;2.77;2.33;;;;;;;;;;4957068;28;20178;-45
2022/08/14 05:55:02;;;;;;;2.60;1.90;;;;;;;;;;4954264;28;20539;-45
2022/08/14 05:57:28;;;;;;;2.20;1.90;;;;;;;;;;4956448;28;20304;-45
2022/08/14 05:59:54;;;;;;;2.77;2.20;;;;;;;;;;4956950;28;20217;-45
2022/08/14 06:02:20;;;;;;;3.43;2.07;;;;;;;;;;4957861;28;20311;-45
2022/08/14 06:04:47;;;;;;;5.37;2.30;;;;;;;;;;4956981;28;20264;-45
2022/08/14 06:07:16;;;;;;;2.47;2.00;;;;;;;;;;4956010;28;20182;-45
2022/08/14 06:09:42;;;;;;;4.03;2.20;;;;;;;;;;4958084;28;20245;-45
2022/08/14 06:12:09;;;;;;;3.23;2.00;;;;;;;;;;4955992;28;20198;-45
2022/08/14 06:14:35;;;;;;;3.67;2.13;;;;;;;;;;4953868;28;21020;-45
2022/08/14 06:17:01;;;;;;;3.00;2.33;;;;;;;;;;4958933;28;20305;-45
2022/08/14 06:19:27;;;;;;;3.00;2.10;;;;;;;;;;4954187;28;20200;-45
2022/08/14 06:21:53;;;;;;;4.53;2.20;;;;;;;;;;4954775;28;20332;-45
2022/08/14 06:24:19;;;;;;;3.07;2.40;;;;;;;;;;4954831;28;20626;-45
2022/08/14 06:26:46;;;;;;;2.63;2.10;;;;;;;;;;4957339;28;20185;-45
2022/08/14 06:29:12;;;;;;;2.10;1.90;;;;;;;;;;4953348;28;20170;-45
2022/08/14 06:31:38;;;;;;;3.47;2.20;;;;;;;;;;4957822;28;20189;-45
2022/08/14 06:34:04;;;;;;;2.40;2.20;;;;;;;;;;4954812;28;20296;-45
2022/08/14 06:36:30;;;;;;;3.33;2.23;;;;;;;;;;4954014;28;20386;-45
2022/08/14 06:38:56;;;;;;;2.93;2.10;;;;;;;;;;4955289;28;20268;-45
2022/08/14 06:41:22;;;;;;;4.67;2.10;;;;;;;;;;4958207;28;20224;-45
2022/08/14 06:43:49;;;;;;;2.43;2.10;;;;;;;;;;4955011;28;20439;-44
2022/08/14 06:46:16;;;;;;;6.00;2.40;;;;;;;;;;4954635;28;20790;-45
2022/08/14 06:48:42;;;;;;;2.83;2.13;;;;;;;;;;4955369;28;20185;-45
2022/08/14 06:51:08;;;;;;;2.53;2.03;;;;;;;;;;4956355;28;20316;-45
2022/08/14 06:53:35;;;;;;;2.40;2.20;;;;;;;;;;4953862;28;20588;-45
2022/08/14 06:56:01;;;;;;;4.00;2.50;;;;;;;;;;4955761;28;20368;-45
2022/08/14 06:58:27;;;;;;;4.20;2.03;;;;;;;;;;4953196;28;20742;-45
2022/08/14 07:06:23;;;;;;;3.30;2.00;;;;;;;;;;4955739;28;20248;-44
2022/08/14 07:08:50;;;;;;;4.23;2.40;;;;;;;;;;4955575;28;20216;-44
2022/08/14 07:11:16;;;;;;;4.13;2.97;;;;;;;;;;4956009;28;20200;-44
2022/08/14 07:13:43;;;;;;;3.77;3.00;;;;;;;;;;4952263;28;20273;-44
2022/08/14 07:16:11;;;;;;;4.83;3.87;;;;;;;;;;4956397;28;20725;-44
2022/08/14 07:18:38;;;;;;;5.87;4.50;;;;;;;;;;4960276;28;20367;-44
2022/08/14 07:21:05;;;;;;;6.53;4.40;;;;;;;;;;4956025;28;20174;-45
2022/08/14 07:23:32;;;;;;;6.90;5.23;;;;;;;;;;4952512;28;20702;-44
2022/08/14 07:26:00;;;;;;;7.83;6.10;;;;;;;;;;4955495;28;20292;-44
2022/08/14 07:28:31;;;;;;;10.27;8.57;;;;;;;;;;4951938;28;20194;-43
2022/08/14 07:30:58;;;;;;;10.37;8.27;;;;;;;;;;4953731;28;20208;-44
2022/08/14 07:33:25;;;;;;;9.70;8.80;;;;;;;;;;4957397;28;20260;-44
2022/08/14 07:35:52;;;;;;;10.77;7.07;;;;;;;;;;4953409;28;20213;-44
2022/08/14 07:38:21;;;;;;;7.47;6.77;;;;;;;;;;4953972;28;21087;-44
2022/08/14 07:40:49;;;;;;;7.10;6.37;;;;;;;;;;4955508;28;20171;-44
2022/08/14 07:43:15;;;;;;;6.40;5.30;;;;;;;;;;4952272;28;20808;-44
2022/08/14 07:45:41;;;;;;;6.80;4.53;;;;;;;;;;4955469;28;20754;-44
2022/08/14 07:48:08;;;;;;;4.77;4.07;;;;;;;;;;4954421;28;20170;-44
2022/08/14 07:50:34;;;;;;;4.13;3.37;;;;;;;;;;4951132;28;20209;-44
2022/08/14 07:53:01;;;;;;;3.50;3.03;;;;;;;;;;4953862;28;20528;-44
2022/08/14 07:55:28;;;;;;;4.20;3.80;;;;;;;;;;4955908;28;20376;-44
2022/08/14 07:57:55;;;;;;;5.53;3.70;;;;;;;;;;4951889;28;20186;-44
2022/08/14 08:00:22;;;;;;;4.37;2.90;;;;;;;;;;4954347;28;20209;-45
2022/08/14 08:02:58;;;;;;;4.13;2.90;;;;;;;;;;4955383;28;20857;-45
2022/08/14 08:05:25;;;;;;;2.90;2.70;;;;;;;;;;4954948;28;20573;-45
2022/08/14 08:07:51;;;;;;;3.67;2.90;;;;;;;;;;4954463;28;20726;-44
2022/08/14 08:10:31;;;;;;;4.20;3.10;;;;;;;;;;4956911;28;20177;-44
2022/08/14 08:12:59;;;;;;;4.03;2.60;;;;;;;;;;4957884;28;20174;-44
2022/08/14 08:15:25;;;;;;;3.70;2.50;;;;;;;;;;4952395;28;20576;-45
2022/08/14 08:17:52;;;;;;;2.83;2.50;;;;;;;;;;4956520;28;20580;-44
2022/08/14 08:20:18;;;;;;;4.43;2.50;;;;;;;;;;4956350;28;20714;-44
2022/08/14 08:22:45;;;;;;;2.80;2.40;;;;;;;;;;4954208;28;20647;-44
2022/08/14 08:25:11;;;;;;;3.10;2.27;;;;;;;;;;4958156;28;20174;-44
2022/08/14 08:27:39;;;;;;;3.53;2.43;;;;;;;;;;4958238;28;20231;-43
2022/08/14 08:30:08;;;;;;;4.90;2.30;;;;;;;;;;4955427;28;20186;-44
2022/08/14 08:32:41;;;;;;;3.80;2.30;;;;;;;;;;4957557;28;20568;-44
2022/08/14 08:35:16;;;;;;;4.23;2.73;;;;;;;;;;4959590;28;20638;-45
2022/08/14 08:37:42;;;;;;;3.27;2.40;;;;;;;;;;4957067;28;20321;-44
2022/08/14 08:40:08;;;;;;;4.57;2.30;;;;;;;;;;4954682;28;20595;-44
2022/08/14 08:42:34;;;;;;;2.93;2.20;;;;;;;;;;4958246;28;20488;-44
2022/08/14 08:45:01;;;;;;;3.33;1.90;;;;;;;;;;4956481;28;20256;-44
2022/08/14 08:47:37;;;;;;;3.87;2.00;;;;;;;;;;4952863;28;20655;-44
2022/08/14 08:50:03;;;;;;;3.53;1.90;;;;;;;;;;4960347;28;20486;-44
2022/08/14 08:52:29;;;;;;;3.17;1.60;;;;;;;;;;4958147;28;20463;-44
2022/08/14 08:54:55;;;;;;;5.00;2.00;;;;;;;;;;4955377;28;20217;-44
2022/08/14 08:57:22;;;;;;;2.40;2.13;;;;;;;;;;4955709;28;20608;-44
2022/08/14 08:59:48;;;;;;;4.07;2.03;;;;;;;;;;4956173;28;20701;-44
2022/08/14 09:02:17;;;;;;;4.53;2.37;;;;;;;;;;4956098;28;20185;-44
2022/08/14 09:04:43;;;;;;;3.50;2.10;;;;;;;;;;4956425;28;20520;-44
2022/08/14 09:07:10;;;;;;;3.47;2.07;;;;;;;;;;4958743;28;20174;-44
2022/08/14 09:09:50;;;;;;;2.70;2.10;;;;;;;;;;4957178;28;20497;-44
2022/08/14 09:12:16;;;;;;;2.33;1.97;;;;;;;;;;4953649;28;20182;-45
2022/08/14 09:14:42;;;;;;;3.23;2.40;;;;;;;;;;4957717;28;20178;-44
2022/08/14 09:17:08;;;;;;;2.00;1.83;;;;;;;;;;4954873;28;20747;-44
2022/08/14 09:19:36;;;;;;;3.60;2.20;;;;;;;;;;4954325;28;20179;-43
2022/08/14 09:22:02;;;;;;;2.10;1.87;;;;;;;;;;4950889;28;20272;-45
2022/08/14 09:24:29;;;;;;;2.47;1.90;;;;;;;;;;4956596;28;20182;-45
2022/08/14 09:26:55;;;;;;;3.40;1.90;;;;;;;;;;4949321;28;20182;-44
2022/08/14 09:29:22;;;;;;;2.13;1.60;;;;;;;;;;4948721;28;20198;-45
2022/08/14 09:31:50;;;;;;;2.13;1.63;;;;;;;;;;4951109;28;20174;-45
2022/08/14 09:34:51;;;;;;;3.03;2.07;;;;;;;;;;4955124;28;20201;-45
2022/08/14 09:37:17;;;;;;;3.70;1.83;;;;;;;;;;4911310;28;20540;-45
2022/08/14 09:40:03;;;;;;;4.77;1.70;;;;;;;;;;4948534;28;20194;-45
2022/08/14 09:42:32;;;;;;;2.80;1.80;;;;;;;;;;4955114;28;20174;-45
2022/08/14 09:45:06;;;;;;;1.90;1.60;;;;;;;;;;4955265;28;20394;-45
2022/08/14 09:47:42;;;;;;;2.10;1.90;;;;;;;;;;4957200;28;20170;-45
2022/08/14 09:50:17;;;;;;;1.93;1.67;;;;;;;;;;4957443;28;20590;-45
2022/08/14 09:53:14;;;;;;;2.10;1.80;;;;;;;;;;4955791;28;20197;-45
2022/08/14 09:55:40;;;;;;;2.17;1.80;;;;;;;;;;4948640;28;20899;-45
2022/08/14 09:58:10;;;;;;;1.70;1.50;;;;;;;;;;4955025;28;20171;-45
2022/08/14 10:00:41;;;;;;;3.13;1.90;;;;;;;;;;4953033;28;20166;-45
2022/08/14 10:03:08;;;;;;;2.07;1.73;;;;;;;;;;4955843;28;20643;-45
2022/08/14 10:05:35;;;;;;;3.23;1.87;;;;;;;;;;4956338;28;20167;-44
2022/08/14 10:08:02;;;;;;;2.87;2.00;;;;;;;;;;4957297;28;20174;-45
2022/08/14 10:10:30;;;;;;;4.00;1.70;;;;;;;;;;4954246;28;20182;-45
2022/08/14 10:12:57;;;;;;;3.83;1.77;;;;;;;;;;4957379;28;20277;-45
2022/08/14 10:15:24;;;;;;;2.07;1.70;;;;;;;;;;4956698;28;20760;-45
2022/08/14 10:18:02;;;;;;;3.20;1.80;;;;;;;;;;4953630;28;20795;-45
2022/08/14 10:20:33;;;;;;;2.23;1.77;;;;;;;;;;4957315;28;20601;-45
2022/08/14 10:23:08;;;;;;;2.23;1.80;;;;;;;;;;4957061;28;20332;-45
2022/08/14 10:25:39;;;;;;;3.03;1.50;;;;;;;;;;4953170;28;20173;-45
2022/08/14 10:28:06;;;;;;;2.93;2.00;;;;;;;;;;4954370;28;20178;-45
2022/08/14 10:30:36;;;;;;;1.90;1.70;;;;;;;;;;4958575;28;20536;-45
2022/08/14 10:33:03;;;;;;;2.30;1.37;;;;;;;;;;4960096;28;20729;-44
2022/08/14 10:35:39;;;;;;;3.43;1.80;;;;;;;;;;4958819;28;20255;-45
2022/08/14 10:38:06;;;;;;;2.17;1.63;;;;;;;;;;4959050;28;20447;-45
2022/08/14 10:40:32;;;;;;;2.50;1.77;;;;;;;;;;4954761;28;20742;-45
2022/08/14 10:42:58;;;;;;;1.87;1.57;;;;;;;;;;4952276;28;20402;-45
2022/08/14 10:45:29;;;;;;;1.83;1.63;;;;;;;;;;4955776;28;20854;-45
2022/08/14 10:47:56;;;;;;;2.37;1.50;;;;;;;;;;4957770;28;20516;-45
2022/08/14 10:50:37;;;;;;;2.83;1.83;;;;;;;;;;4954864;28;20220;-45
2022/08/14 10:53:04;;;;;;;2.40;1.47;;;;;;;;;;4957517;28;20193;-45
2022/08/14 10:55:40;;;;;;;2.60;1.90;;;;;;;;;;4955734;28;20189;-45
2022/08/14 10:58:10;;;;;;;1.50;1.40;;;;;;;;;;4953184;28;20182;-44
2022/08/14 11:00:38;;;;;;;2.80;1.70;;;;;;;;;;4956925;28;20252;-45
2022/08/14 11:03:09;;;;;;;3.20;1.70;;;;;;;;;;4955420;28;20440;-45
2022/08/14 11:05:48;;;;;;;2.40;1.50;;;;;;;;;;4955212;28;20178;-45
2022/08/14 11:08:16;;;;;;;2.50;1.57;;;;;;;;;;4958560;28;20284;-45
2022/08/14 11:10:44;;;;;;;1.87;1.50;;;;;;;;;;4953691;28;20973;-44
2022/08/14 11:13:14;;;;;;;3.37;1.77;;;;;;;;;;4954240;28;20624;-45
2022/08/14 11:15:40;;;;;;;2.20;1.80;;;;;;;;;;4958605;28;20182;-45
2022/08/14 11:18:07;;;;;;;3.73;1.70;;;;;;;;;;4956332;28;20769;-45
2022/08/14 11:20:33;;;;;;;2.03;1.50;;;;;;;;;;4954527;28;20679;-44
2022/08/14 11:23:00;;;;;;;3.47;1.50;;;;;;;;;;4958576;28;20674;-44
2022/08/14 11:25:30;;;;;;;2.30;1.57;;;;;;;;;;4954700;28;20555;-45
2022/08/14 11:27:57;;;;;;;3.03;1.60;;;;;;;;;;4955850;28;20284;-46
2022/08/14 11:30:24;;;;;;;2.00;1.40;;;;;;;;;;4984167;28;20174;-45
2022/08/14 11:32:53;;;;;;;1.37;1.27;;;;;;;;;;4953498;28;20208;-45
2022/08/14 11:35:25;;;;;;;1.90;1.53;;;;;;;;;;4957207;28;20186;-45
2022/08/14 11:37:53;;;;;;;1.60;1.50;;;;;;;;;;4953519;28;20317;-45
2022/08/14 11:40:20;;;;;;;3.13;1.70;;;;;;;;;;4954052;28;20263;-45
2022/08/14 11:42:54;;;;;;;7.37;1.60;;;;;;;;;;4958093;28;20553;-45
2022/08/14 11:45:21;;;;;;;1.90;1.70;;;;;;;;;;4957917;28;20277;-45
2022/08/14 11:47:47;;;;;;;3.10;1.90;;;;;;;;;;4970569;28;20598;-45
2022/08/14 11:50:16;;;;;;;2.83;1.57;;;;;;;;;;4961102;28;20224;-45
2022/08/14 11:52:43;;;;;;;3.80;1.60;;;;;;;;;;4956804;28;20419;-46
2022/08/14 11:55:11;;;;;;;2.80;1.60;;;;;;;;;;4957490;28;20194;-45
2022/08/14 11:57:38;;;;;;;2.40;1.80;;;;;;;;;;4957301;28;20619;-46
2022/08/14 12:00:08;;;;;;;3.70;1.23;;;;;;;;;;4957468;28;20706;-46
2022/08/14 12:02:35;;;;;;;1.77;1.60;;;;;;;;;;4956399;28;20489;-46
2022/08/14 12:05:02;;;;;;;2.43;1.40;;;;;;;;;;4957823;28;20316;-45
2022/08/14 12:07:28;;;;;;;1.60;1.50;;;;;;;;;;4961458;28;20940;-46
2022/08/14 12:09:55;;;;;;;2.17;1.40;;;;;;;;;;4957118;28;20352;-46
2022/08/14 12:12:21;;;;;;;2.40;1.50;;;;;;;;;;4956656;28;20626;-45
2022/08/14 12:14:55;;;;;;;1.60;1.50;;;;;;;;;;4961008;28;20272;-44
2022/08/14 12:17:21;;;;;;;2.03;1.53;;;;;;;;;;4956983;28;20713;-45
2022/08/14 12:19:55;;;;;;;2.33;1.33;;;;;;;;;;4957446;28;20190;-45
2022/08/14 12:22:38;;;;;;;1.57;1.40;;;;;;;;;;4960092;28;20742;-45
2022/08/14 12:25:05;;;;;;;1.93;1.30;;;;;;;;;;4955394;28;20523;-45
2022/08/14 12:27:50;;;;;;;1.60;1.13;;;;;;;;;;4957840;28;21055;-45
2022/08/14 12:30:36;;;;;;;1.40;1.30;;;;;;;;;;4960010;28;20194;-45
2022/08/14 12:33:03;;;;;;;1.93;1.37;;;;;;;;;;4957510;28;20171;-45
2022/08/14 12:35:56;;;;;;;2.93;1.50;;;;;;;;;;4954918;28;20314;-45
2022/08/14 12:38:36;;;;;;;1.80;1.43;;;;;;;;;;4959009;28;20198;-45
2022/08/14 12:41:05;;;;;;;4.10;1.77;;;;;;;;;;4959763;28;20179;-45
2022/08/14 12:43:33;;;;;;;1.50;1.40;;;;;;;;;;4955682;28;20394;-45
2022/08/14 12:46:00;;;;;;;1.57;1.30;;;;;;;;;;4959248;28;20206;-45
2022/08/14 12:48:27;;;;;;;1.57;1.47;;;;;;;;;;4959575;28;20175;-45
2022/08/14 12:50:54;;;;;;;1.50;1.40;;;;;;;;;;4952365;28;20305;-45
2022/08/14 12:53:20;;;;;;;1.87;1.40;;;;;;;;;;4958288;28;20258;-45
2022/08/14 12:55:57;;;;;;;3.07;1.50;;;;;;;;;;4958701;28;20740;-45
2022/08/14 12:58:27;;;;;;;1.60;1.50;;;;;;;;;;4955974;28;20175;-45
2022/08/14 13:00:55;;;;;;;2.37;1.10;;;;;;;;;;4955368;28;20715;-45
2022/08/14 13:03:25;;;;;;;1.33;1.23;;;;;;;;;;4958572;28;20529;-45
2022/08/14 13:05:51;;;;;;;1.40;1.30;;;;;;;;;;4958014;28;20560;-45
2022/08/14 13:08:17;;;;;;;1.73;1.13;;;;;;;;;;4955437;28;20713;-45
2022/08/14 13:10:44;;;;;;;1.50;1.40;;;;;;;;;;4958986;28;20180;-44
2022/08/14 13:13:11;;;;;;;2.17;1.27;;;;;;;;;;4958101;28;20617;-45
2022/08/14 13:15:38;;;;;;;1.77;1.47;;;;;;;;;;4954805;28;20248;-45
2022/08/14 13:18:05;;;;;;;1.73;1.20;;;;;;;;;;4956427;28;20296;-45
2022/08/14 13:20:32;;;;;;;1.47;1.27;;;;;;;;;;4959402;28;20299;-46
2022/08/14 13:22:58;;;;;;;1.47;1.17;;;;;;;;;;4956631;28;20506;-45
2022/08/14 13:25:26;;;;;;;1.50;1.20;;;;;;;;;;4955332;28;20199;-45
2022/08/14 13:27:56;;;;;;;2.30;1.50;;;;;;;;;;4957536;28;20190;-45
2022/08/14 13:30:23;;;;;;;2.10;1.40;;;;;;;;;;4955239;28;20226;-45
2022/08/14 13:32:50;;;;;;;1.30;1.20;;;;;;;;;;4958375;28;20320;-45
2022/08/14 13:35:17;;;;;;;1.93;1.10;;;;;;;;;;4958590;28;20178;-45
2022/08/14 13:37:43;;;;;;;1.70;1.20;;;;;;;;;;4955346;28;20762;-46
2022/08/14 13:40:11;;;;;;;2.27;1.43;;;;;;;;;;4953771;28;20178;-45
2022/08/14 13:42:40;;;;;;;1.43;1.20;;;;;;;;;;4956009;28;20253;-45
2022/08/14 13:45:07;;;;;;;2.87;1.40;;;;;;;;;;4959010;28;20313;-45
2022/08/14 13:47:34;;;;;;;1.20;1.10;;;;;;;;;;4955953;28;20470;-46
2022/08/14 13:50:01;;;;;;;2.40;1.00;;;;;;;;;;4956526;28;20745;-45
2022/08/14 13:52:53;;;;;;;2.03;1.30;;;;;;;;;;4958644;28;20478;-46
2022/08/14 13:55:25;;;;;;;1.37;1.20;;;;;;;;;;4953731;28;20182;-45
2022/08/14 13:57:54;;;;;;;1.77;1.10;;;;;;;;;;4956134;28;20320;-45
2022/08/14 14:00:20;;;;;;;1.33;1.23;;;;;;;;;;4959385;28;20171;-45
2022/08/14 14:02:47;;;;;;;1.60;1.50;;;;;;;;;;4956376;28;20175;-45
2022/08/14 14:05:15;;;;;;;3.37;1.60;;;;;;;;;;4952702;28;20538;-46
2022/08/14 14:07:45;;;;;;;1.53;1.30;;;;;;;;;;4958264;28;20201;-45
2022/08/14 14:10:12;;;;;;;1.70;1.30;;;;;;;;;;4958653;28;20873;-46
2022/08/14 14:12:39;;;;;;;1.90;1.40;;;;;;;;;;4955148;28;20355;-46
2022/08/14 14:15:09;;;;;;;1.90;1.40;;;;;;;;;;4955967;28;20449;-46
2022/08/14 14:17:36;;;;;;;2.07;1.20;;;;;;;;;;4958069;28;20400;-46
2022/08/14 14:20:03;;;;;;;1.60;1.30;;;;;;;;;;4955848;28;20853;-46
2022/08/14 14:22:30;;;;;;;2.10;1.40;;;;;;;;;;4954379;28;20199;-45
2022/08/14 14:24:56;;;;;;;2.00;1.10;;;;;;;;;;4954093;28;20190;-46
2022/08/14 14:27:24;;;;;;;1.77;1.20;;;;;;;;;;4957437;28;20336;-46
2022/08/14 14:29:51;;;;;;;3.97;1.30;;;;;;;;;;4954149;28;20190;-46
2022/08/14 14:32:17;;;;;;;1.40;1.30;;;;;;;;;;4957055;28;20554;-46
2022/08/14 14:34:44;;;;;;;1.50;1.40;;;;;;;;;;4957701;28;20508;-46
2022/08/14 14:37:14;;;;;;;1.30;1.20;;;;;;;;;;4954973;28;20228;-46
2022/08/14 14:39:40;;;;;;;3.93;1.10;;;;;;;;;;4953370;28;20177;-46
2022/08/14 14:42:07;;;;;;;2.33;1.17;;;;;;;;;;4956243;28;20420;-46
2022/08/14 14:44:39;;;;;;;2.97;1.40;;;;;;;;;;4955385;28;20594;-46
2022/08/14 14:47:07;;;;;;;2.87;1.50;;;;;;;;;;4952772;28;20918;-46
2022/08/14 14:49:33;;;;;;;2.63;1.40;;;;;;;;;;4956965;28;20186;-46
2022/08/14 14:51:59;;;;;;;1.50;1.40;;;;;;;;;;4958517;28;20245;-46
2022/08/14 14:54:25;;;;;;;2.60;1.50;;;;;;;;;;4953317;28;20760;-46
2022/08/14 14:56:52;;;;;;;1.63;1.30;;;;;;;;;;4955115;28;20629;-46
2022/08/14 14:59:19;;;;;;;1.17;1.10;;;;;;;;;;4957387;28;20612;-46
2022/08/14 15:01:48;;;;;;;2.40;1.40;;;;;;;;;;4953797;28;20777;-46
2022/08/14 15:04:15;;;;;;;1.70;1.60;;;;;;;;;;4955019;28;20209;-45
2022/08/14 15:06:42;;;;;;;1.63;1.40;;;;;;;;;;4957214;28;20500;-45